sensor_id;sensor_type;location;lat;lon;timestamp;pressure;altitude;pressure_sealevel;temperature;humidity
55032;BME280;40928;51.076;7.950;2023-03-23T00:02:29;96054.25;;;8.86;100.00
55032;BME280;40928;51.076;7.950;2023-03-23T00:04:55;96064.97;;;8.91;100.00
55032;BME280;40928;51.076;7.950;2023-03-23T00:07:22;96061.47;;;8.90;100.00
55032;BME280;40928;51.076;7.950;2023-03-23T00:09:53;96061.19;;;8.87;100.00
55032;BME280;40928;51.076;7.950;2023-03-23T00:12:21;96058.16;;;8.78;100.00
55032;BME280;40928;51.076;7.950;2023-03-23T00:14:47;96069.31;;;8.75;100.00
55032;BME280;40928;51.076;7.950;2023-03-23T00:17:12;96077.09;;;8.81;100.00
55032;BME280;40928;51.076;7.950;2023-03-23T00:19:39;96059.78;;;8.79;100.00
55032;BME280;40928;51.076;7.950;2023-03-23T00:22:16;96059.00;;;8.78;100.00
55032;BME280;40928;51.076;7.950;2023-03-23T00:24:47;96053.91;;;8.77;100.00
55032;BME280;40928;51.076;7.950;2023-03-23T00:27:16;96038.97;;;8.76;100.00
55032;BME280;40928;51.076;7.950;2023-03-23T00:29:41;96044.06;;;8.77;100.00
55032;BME280;40928;51.076;7.950;2023-03-23T00:32:08;96039.03;;;8.81;100.00
55032;BME280;40928;51.076;7.950;2023-03-23T00:34:38;96036.88;;;8.78;100.00
55032;BME280;40928;51.076;7.950;2023-03-23T00:37:03;96037.69;;;8.78;100.00
55032;BME280;40928;51.076;7.950;2023-03-23T00:39:29;96043.00;;;8.78;100.00
55032;BME280;40928;51.076;7.950;2023-03-23T00:41:55;96049.13;;;8.79;100.00
55032;BME280;40928;51.076;7.950;2023-03-23T00:44:27;96038.97;;;8.76;100.00
55032;BME280;40928;51.076;7.950;2023-03-23T00:46:54;96033.09;;;8.74;100.00
55032;BME280;40928;51.076;7.950;2023-03-23T00:49:23;96027.53;;;8.75;100.00
55032;BME280;40928;51.076;7.950;2023-03-23T00:51:51;96027.53;;;8.75;100.00
55032;BME280;40928;51.076;7.950;2023-03-23T00:54:16;96025.81;;;8.91;100.00
55032;BME280;40928;51.076;7.950;2023-03-23T00:56:42;96036.13;;;8.82;100.00
55032;BME280;40928;51.076;7.950;2023-03-23T00:59:08;96030.75;;;8.77;100.00
55032;BME280;40928;51.076;7.950;2023-03-23T01:01:34;96017.19;;;8.79;100.00
55032;BME280;40928;51.076;7.950;2023-03-23T01:04:02;96026.00;;;8.79;100.00
55032;BME280;40928;51.076;7.950;2023-03-23T01:06:37;96030.22;;;8.80;100.00
55032;BME280;40928;51.076;7.950;2023-03-23T01:09:15;96017.03;;;8.91;100.00
55032;BME280;40928;51.076;7.950;2023-03-23T01:11:45;96019.84;;;8.79;100.00
55032;BME280;40928;51.076;7.950;2023-03-23T01:14:12;96017.19;;;8.79;100.00
55032;BME280;40928;51.076;7.950;2023-03-23T01:16:38;96018.03;;;8.84;100.00
55032;BME280;40928;51.076;7.950;2023-03-23T01:19:04;96016.19;;;8.85;100.00
55032;BME280;40928;51.076;7.950;2023-03-23T01:21:30;96020.13;;;8.82;100.00
55032;BME280;40928;51.076;7.950;2023-03-23T01:23:56;96008.22;;;8.90;100.00
55032;BME280;40928;51.076;7.950;2023-03-23T01:26:25;96008.16;;;8.80;100.00
55032;BME280;40928;51.076;7.950;2023-03-23T01:28:52;96006.84;;;8.82;100.00
55032;BME280;40928;51.076;7.950;2023-03-23T01:31:20;96008.22;;;8.85;100.00
55032;BME280;40928;51.076;7.950;2023-03-23T01:33:46;96001.78;;;8.81;100.00
55032;BME280;40928;51.076;7.950;2023-03-23T01:36:15;96008.91;;;8.75;100.00
55032;BME280;40928;51.076;7.950;2023-03-23T01:38:43;95993.16;;;8.74;100.00
55032;BME280;40928;51.076;7.950;2023-03-23T01:41:10;95998.50;;;8.74;100.00
55032;BME280;40928;51.076;7.950;2023-03-23T01:43:36;95990.50;;;8.74;100.00
55032;BME280;40928;51.076;7.950;2023-03-23T01:46:02;95988.13;;;8.72;100.00
55032;BME280;40928;51.076;7.950;2023-03-23T01:48:33;95993.72;;;8.76;100.00
55032;BME280;40928;51.076;7.950;2023-03-23T01:51:09;95987.41;;;8.82;100.00
55032;BME280;40928;51.076;7.950;2023-03-23T01:53:46;95990.00;;;8.77;100.00
55032;BME280;40928;51.076;7.950;2023-03-23T01:56:14;95984.69;;;8.77;100.00
55032;BME280;40928;51.076;7.950;2023-03-23T01:58:41;95989.44;;;8.70;100.00
55032;BME280;40928;51.076;7.950;2023-03-23T02:01:10;95992.66;;;8.72;100.00
55032;BME280;40928;51.076;7.950;2023-03-23T02:03:39;95986.78;;;8.70;100.00
55032;BME280;40928;51.076;7.950;2023-03-23T02:06:07;95993.16;;;8.68;100.00
55032;BME280;40928;51.076;7.950;2023-03-23T02:08:43;95989.94;;;8.66;100.00
55032;BME280;40928;51.076;7.950;2023-03-23T02:11:17;95995.00;;;8.68;100.00
55032;BME280;40928;51.076;7.950;2023-03-23T02:13:44;95991.97;;;8.59;100.00
55032;BME280;40928;51.076;7.950;2023-03-23T02:24:53;95999.97;;;8.59;100.00
55032;BME280;40928;51.076;7.950;2023-03-23T02:35:50;95991.88;;;8.49;100.00
55032;BME280;40928;51.076;7.950;2023-03-23T02:38:25;96000.16;;;8.52;100.00
55032;BME280;40928;51.076;7.950;2023-03-23T02:40:54;95996.22;;;8.55;100.00
55032;BME280;40928;51.076;7.950;2023-03-23T02:43:24;95998.25;;;8.48;100.00
55032;BME280;40928;51.076;7.950;2023-03-23T02:45:52;95992.94;;;8.48;100.00
55032;BME280;40928;51.076;7.950;2023-03-23T02:48:20;95998.81;;;8.50;100.00
55032;BME280;40928;51.076;7.950;2023-03-23T02:50:51;95999.06;;;8.48;100.00
55032;BME280;40928;51.076;7.950;2023-03-23T02:53:21;96001.75;;;8.48;100.00
55032;BME280;40928;51.076;7.950;2023-03-23T02:55:52;96007.59;;;8.50;100.00
55032;BME280;40928;51.076;7.950;2023-03-23T02:58:20;96000.72;;;8.55;100.00
55032;BME280;40928;51.076;7.950;2023-03-23T03:00:51;96003.81;;;8.46;100.00
55032;BME280;40928;51.076;7.950;2023-03-23T03:03:26;96006.69;;;8.45;100.00
55032;BME280;40928;51.076;7.950;2023-03-23T03:08:50;95992.53;;;8.39;100.00
55032;BME280;40928;51.076;7.950;2023-03-23T03:11:20;95991.28;;;8.47;100.00
55032;BME280;40928;51.076;7.950;2023-03-23T03:14:07;95976.66;;;8.44;100.00
55032;BME280;40928;51.076;7.950;2023-03-23T03:19:28;95951.31;;;8.36;100.00
55032;BME280;40928;51.076;7.950;2023-03-23T03:21:57;95931.91;;;8.41;100.00
55032;BME280;40928;51.076;7.950;2023-03-23T03:24:36;95945.38;;;8.29;100.00
55032;BME280;40928;51.076;7.950;2023-03-23T03:27:04;95938.41;;;8.23;100.00
55032;BME280;40928;51.076;7.950;2023-03-23T03:29:45;95924.56;;;8.21;100.00
55032;BME280;40928;51.076;7.950;2023-03-23T03:32:18;95943.16;;;8.21;100.00
55032;BME280;40928;51.076;7.950;2023-03-23T03:34:46;95945.69;;;8.33;100.00
55032;BME280;40928;51.076;7.950;2023-03-23T03:37:13;95931.00;;;8.30;100.00
55032;BME280;40928;51.076;7.950;2023-03-23T03:39:40;95935.47;;;8.25;100.00
55032;BME280;40928;51.076;7.950;2023-03-23T03:42:06;95942.66;;;8.24;100.00
55032;BME280;40928;51.076;7.950;2023-03-23T03:44:35;95931.28;;;8.29;100.00
55032;BME280;40928;51.076;7.950;2023-03-23T03:47:01;95925.91;;;8.23;100.00
55032;BME280;40928;51.076;7.950;2023-03-23T03:49:27;95927.59;;;8.35;100.00
55032;BME280;40928;51.076;7.950;2023-03-23T03:51:53;95931.50;;;8.27;100.00
55032;BME280;40928;51.076;7.950;2023-03-23T03:54:24;95933.94;;;8.29;100.00
55032;BME280;40928;51.076;7.950;2023-03-23T03:56:50;95924.59;;;8.26;100.00
55032;BME280;40928;51.076;7.950;2023-03-23T03:59:43;95936.53;;;8.23;100.00
55032;BME280;40928;51.076;7.950;2023-03-23T04:02:24;95940.59;;;8.31;100.00
55032;BME280;40928;51.076;7.950;2023-03-23T04:04:51;95932.06;;;8.29;100.00
55032;BME280;40928;51.076;7.950;2023-03-23T04:07:20;95941.66;;;8.30;100.00
55032;BME280;40928;51.076;7.950;2023-03-23T04:09:47;95955.22;;;8.29;100.00
55032;BME280;40928;51.076;7.950;2023-03-23T04:12:15;95958.63;;;8.24;100.00
55032;BME280;40928;51.076;7.950;2023-03-23T04:14:57;95957.03;;;8.23;100.00
55032;BME280;40928;51.076;7.950;2023-03-23T04:17:30;95961.28;;;8.24;100.00
55032;BME280;40928;51.076;7.950;2023-03-23T04:19:56;95954.66;;;8.27;100.00
55032;BME280;40928;51.076;7.950;2023-03-23T04:22:24;95953.06;;;8.26;100.00
55032;BME280;40928;51.076;7.950;2023-03-23T04:24:59;95967.19;;;8.31;100.00
55032;BME280;40928;51.076;7.950;2023-03-23T04:27:27;95966.34;;;8.26;100.00
55032;BME280;40928;51.076;7.950;2023-03-23T04:29:57;95952.84;;;8.32;100.00
55032;BME280;40928;51.076;7.950;2023-03-23T04:32:42;95954.59;;;8.21;100.00
55032;BME280;40928;51.076;7.950;2023-03-23T04:35:11;95963.38;;;8.22;100.00
55032;BME280;40928;51.076;7.950;2023-03-23T04:37:42;95955.09;;;8.18;100.00
55032;BME280;40928;51.076;7.950;2023-03-23T04:40:10;95959.91;;;8.21;100.00
55032;BME280;40928;51.076;7.950;2023-03-23T04:42:42;95957.25;;;8.21;100.00
55032;BME280;40928;51.076;7.950;2023-03-23T04:45:41;95956.19;;;8.22;100.00
55032;BME280;40928;51.076;7.950;2023-03-23T04:48:10;95959.69;;;8.23;100.00
55032;BME280;40928;51.076;7.950;2023-03-23T04:50:56;95953.25;;;8.19;100.00
55032;BME280;40928;51.076;7.950;2023-03-23T04:53:29;95964.94;;;8.18;100.00
55032;BME280;40928;51.076;7.950;2023-03-23T04:55:55;95961.81;;;8.26;100.00
55032;BME280;40928;51.076;7.950;2023-03-23T04:58:21;95958.63;;;8.24;100.00
55032;BME280;40928;51.076;7.950;2023-03-23T05:01:09;95964.19;;;8.22;100.00
55032;BME280;40928;51.076;7.950;2023-03-23T05:03:44;95962.34;;;8.23;100.00
55032;BME280;40928;51.076;7.950;2023-03-23T05:06:10;95961.03;;;8.26;100.00
55032;BME280;40928;51.076;7.950;2023-03-23T05:08:37;95954.75;;;8.37;100.00
55032;BME280;40928;51.076;7.950;2023-03-23T05:11:06;95961.31;;;8.29;100.00
55032;BME280;40928;51.076;7.950;2023-03-23T05:13:35;95963.69;;;8.26;100.00
55032;BME280;40928;51.076;7.950;2023-03-23T05:16:05;95963.94;;;8.24;100.00
55032;BME280;40928;51.076;7.950;2023-03-23T05:18:32;95965.88;;;8.34;100.00
55032;BME280;40928;51.076;7.950;2023-03-23T05:21:02;95964.47;;;8.26;100.00
55032;BME280;40928;51.076;7.950;2023-03-23T05:23:33;95963.13;;;8.23;100.00
55032;BME280;40928;51.076;7.950;2023-03-23T05:26:05;95966.59;;;8.24;100.00
55032;BME280;40928;51.076;7.950;2023-03-23T05:28:32;95971.16;;;8.29;100.00
55032;BME280;40928;51.076;7.950;2023-03-23T05:31:06;95965.78;;;8.23;100.00
55032;BME280;40928;51.076;7.950;2023-03-23T05:33:33;95967.66;;;8.23;100.00
55032;BME280;40928;51.076;7.950;2023-03-23T05:36:17;95971.38;;;8.22;100.00
55032;BME280;40928;51.076;7.950;2023-03-23T05:39:05;95970.56;;;8.21;100.00
55032;BME280;40928;51.076;7.950;2023-03-23T05:41:48;95967.41;;;8.25;100.00
55032;BME280;40928;51.076;7.950;2023-03-23T05:44:14;95974.06;;;8.27;100.00
55032;BME280;40928;51.076;7.950;2023-03-23T05:46:50;95963.28;;;8.39;100.00
55032;BME280;40928;51.076;7.950;2023-03-23T05:49:16;95959.16;;;8.26;100.00
55032;BME280;40928;51.076;7.950;2023-03-23T05:51:43;95974.03;;;8.22;100.00
55032;BME280;40928;51.076;7.950;2023-03-23T05:54:10;95976.72;;;8.27;100.00
55032;BME280;40928;51.076;7.950;2023-03-23T05:56:38;95975.44;;;8.30;100.00
55032;BME280;40928;51.076;7.950;2023-03-23T05:59:20;95979.38;;;8.27;100.00
55032;BME280;40928;51.076;7.950;2023-03-23T06:01:51;95969.31;;;8.29;100.00
55032;BME280;40928;51.076;7.950;2023-03-23T06:04:20;95971.53;;;8.37;100.00
55032;BME280;40928;51.076;7.950;2023-03-23T06:07:01;95973.88;;;8.34;100.00
55032;BME280;40928;51.076;7.950;2023-03-23T06:09:27;95982.94;;;8.33;100.00
55032;BME280;40928;51.076;7.950;2023-03-23T06:12:17;95982.41;;;8.36;100.00
55032;BME280;40928;51.076;7.950;2023-03-23T06:15:11;95975.81;;;8.38;100.00
55032;BME280;40928;51.076;7.950;2023-03-23T06:18:16;95975.25;;;8.36;100.00
55032;BME280;40928;51.076;7.950;2023-03-23T06:20:51;95978.41;;;8.33;100.00
55032;BME280;40928;51.076;7.950;2023-03-23T06:23:43;95987.28;;;8.44;100.00
55032;BME280;40928;51.076;7.950;2023-03-23T06:26:11;95993.09;;;8.41;100.00
55032;BME280;40928;51.076;7.950;2023-03-23T06:28:40;96003.38;;;8.55;100.00
55032;BME280;40928;51.076;7.950;2023-03-23T06:31:06;95988.72;;;8.52;100.00
55032;BME280;40928;51.076;7.950;2023-03-23T06:33:35;95998.81;;;8.50;100.00
55032;BME280;40928;51.076;7.950;2023-03-23T06:36:37;95985.69;;;8.43;100.00
55032;BME280;40928;51.076;7.950;2023-03-23T06:39:14;95999.47;;;8.40;100.00
55032;BME280;40928;51.076;7.950;2023-03-23T06:41:58;96008.91;;;8.48;100.00
55032;BME280;40928;51.076;7.950;2023-03-23T06:44:26;96006.97;;;8.43;100.00
55032;BME280;40928;51.076;7.950;2023-03-23T06:46:53;96008.63;;;8.49;100.00
55032;BME280;40928;51.076;7.950;2023-03-23T06:49:27;95994.53;;;8.49;100.00
55032;BME280;40928;51.076;7.950;2023-03-23T06:52:12;96012.69;;;8.52;100.00
55032;BME280;40928;51.076;7.950;2023-03-23T06:54:38;96019.69;;;8.63;100.00
55032;BME280;40928;51.076;7.950;2023-03-23T06:57:05;96016.69;;;8.55;100.00
55032;BME280;40928;51.076;7.950;2023-03-23T06:59:31;96020.94;;;8.56;100.00
55032;BME280;40928;51.076;7.950;2023-03-23T07:01:57;96011.81;;;8.74;100.00
55032;BME280;40928;51.076;7.950;2023-03-23T07:04:23;96005.44;;;8.75;100.00
55032;BME280;40928;51.076;7.950;2023-03-23T07:07:00;96007.16;;;8.86;100.00
55032;BME280;40928;51.076;7.950;2023-03-23T07:09:29;96007.34;;;8.79;100.00
55032;BME280;40928;51.076;7.950;2023-03-23T07:11:54;96020.50;;;8.91;100.00
55032;BME280;40928;51.076;7.950;2023-03-23T07:14:32;96007.19;;;8.91;100.00
55032;BME280;40928;51.076;7.950;2023-03-23T07:16:57;96004.50;;;8.86;100.00
55032;BME280;40928;51.076;7.950;2023-03-23T07:19:23;96004.50;;;8.91;100.00
55032;BME280;40928;51.076;7.950;2023-03-23T07:21:49;96008.22;;;8.90;100.00
55032;BME280;40928;51.076;7.950;2023-03-23T07:24:16;96015.72;;;8.93;100.00
55032;BME280;40928;51.076;7.950;2023-03-23T07:27:00;96024.25;;;8.95;100.00
55032;BME280;40928;51.076;7.950;2023-03-23T07:29:27;96029.59;;;8.95;100.00
55032;BME280;40928;51.076;7.950;2023-03-23T07:32:04;96035.41;;;8.92;100.00
55032;BME280;40928;51.076;7.950;2023-03-23T07:34:31;96029.31;;;8.97;100.00
55032;BME280;40928;51.076;7.950;2023-03-23T07:37:10;96031.25;;;9.02;100.00
55032;BME280;40928;51.076;7.950;2023-03-23T07:39:39;96025.41;;;9.05;100.00
55032;BME280;40928;51.076;7.950;2023-03-23T07:42:08;96034.69;;;9.02;100.00
55032;BME280;40928;51.076;7.950;2023-03-23T07:44:42;96035.31;;;9.09;100.00
55032;BME280;40928;51.076;7.950;2023-03-23T07:47:11;96042.75;;;9.07;100.00
55032;BME280;40928;51.076;7.950;2023-03-23T07:49:36;96041.97;;;9.12;100.00
55032;BME280;40928;51.076;7.950;2023-03-23T07:52:17;96036.16;;;9.15;100.00
55032;BME280;40928;51.076;7.950;2023-03-23T07:54:43;96041.28;;;9.27;100.00
55032;BME280;40928;51.076;7.950;2023-03-23T07:57:28;96038.34;;;9.23;100.00
55032;BME280;40928;51.076;7.950;2023-03-23T07:59:58;96027.19;;;9.26;100.00
55032;BME280;40928;51.076;7.950;2023-03-23T08:02:26;96037.03;;;9.26;100.00
55032;BME280;40928;51.076;7.950;2023-03-23T08:05:13;96033.84;;;9.29;100.00
55032;BME280;40928;51.076;7.950;2023-03-23T08:07:42;96034.13;;;9.27;100.00
55032;BME280;40928;51.076;7.950;2023-03-23T08:10:23;96042.38;;;9.26;100.00
55032;BME280;40928;51.076;7.950;2023-03-23T08:13:07;96040.53;;;9.32;100.00
55032;BME280;40928;51.076;7.950;2023-03-23T08:16:09;96044.56;;;9.34;100.00
55032;BME280;40928;51.076;7.950;2023-03-23T08:19:01;96043.00;;;9.38;100.00
55032;BME280;40928;51.076;7.950;2023-03-23T08:21:50;96038.50;;;9.44;100.00
55032;BME280;40928;51.076;7.950;2023-03-23T08:24:16;96036.38;;;9.46;100.00
55032;BME280;40928;51.076;7.950;2023-03-23T08:27:05;96039.59;;;9.48;100.00
55032;BME280;40928;51.076;7.950;2023-03-23T08:29:58;96035.63;;;9.51;100.00
55032;BME280;40928;51.076;7.950;2023-03-23T08:32:43;96032.44;;;9.59;100.00
55032;BME280;40928;51.076;7.950;2023-03-23T08:35:42;96021.59;;;9.71;100.00
55032;BME280;40928;51.076;7.950;2023-03-23T08:38:32;96019.53;;;9.78;100.00
55032;BME280;40928;51.076;7.950;2023-03-23T08:41:16;96026.69;;;9.72;100.00
55032;BME280;40928;51.076;7.950;2023-03-23T08:44:09;96024.03;;;9.72;100.00
55032;BME280;40928;51.076;7.950;2023-03-23T08:46:53;96029.16;;;9.84;100.00
55032;BME280;40928;51.076;7.950;2023-03-23T08:49:48;96024.13;;;9.93;100.00
55032;BME280;40928;51.076;7.950;2023-03-23T08:52:37;96035.06;;;9.97;100.00
55032;BME280;40928;51.076;7.950;2023-03-23T08:55:38;96034.50;;;9.89;100.00
55032;BME280;40928;51.076;7.950;2023-03-23T08:58:19;96043.06;;;9.92;100.00
55032;BME280;40928;51.076;7.950;2023-03-23T09:00:48;96042.50;;;9.89;100.00
55032;BME280;40928;51.076;7.950;2023-03-23T09:03:49;96054.03;;;10.00;100.00
55032;BME280;40928;51.076;7.950;2023-03-23T09:06:29;96046.84;;;10.01;100.00
55032;BME280;40928;51.076;7.950;2023-03-23T09:08:55;96048.72;;;10.00;100.00
55032;BME280;40928;51.076;7.950;2023-03-23T09:11:21;96051.13;;;10.07;100.00
55032;BME280;40928;51.076;7.950;2023-03-23T09:13:47;96064.22;;;10.09;100.00
55032;BME280;40928;51.076;7.950;2023-03-23T09:16:13;96063.97;;;10.10;100.00
55032;BME280;40928;51.076;7.950;2023-03-23T09:18:40;96062.91;;;10.16;100.00
55032;BME280;40928;51.076;7.950;2023-03-23T09:21:05;96061.31;;;10.10;100.00
55032;BME280;40928;51.076;7.950;2023-03-23T09:23:32;96053.53;;;10.09;100.00
55032;BME280;40928;51.076;7.950;2023-03-23T09:25:59;96049.56;;;10.11;100.00
55032;BME280;40928;51.076;7.950;2023-03-23T09:28:25;96051.19;;;10.17;100.00
55032;BME280;40928;51.076;7.950;2023-03-23T09:30:51;96054.13;;;10.21;100.00
55032;BME280;40928;51.076;7.950;2023-03-23T09:33:17;96056.50;;;10.17;100.00
55032;BME280;40928;51.076;7.950;2023-03-23T09:35:43;96063.50;;;10.24;100.00
55032;BME280;40928;51.076;7.950;2023-03-23T09:38:09;96077.09;;;10.27;100.00
55032;BME280;40928;51.076;7.950;2023-03-23T09:41:01;96084.06;;;10.28;100.00
55032;BME280;40928;51.076;7.950;2023-03-23T09:46:30;96076.41;;;10.42;100.00
55032;BME280;40928;51.076;7.950;2023-03-23T09:49:11;96078.59;;;10.61;100.00
55032;BME280;40928;51.076;7.950;2023-03-23T09:51:51;96082.28;;;10.44;100.00
55032;BME280;40928;51.076;7.950;2023-03-23T09:54:29;96087.16;;;10.58;100.00
55032;BME280;40928;51.076;7.950;2023-03-23T09:56:58;96089.28;;;10.66;100.00
55032;BME280;40928;51.076;7.950;2023-03-23T09:59:46;96072.19;;;10.62;100.00
55032;BME280;40928;51.076;7.950;2023-03-23T10:02:18;96083.97;;;10.66;100.00
55032;BME280;40928;51.076;7.950;2023-03-23T10:04:49;96089.56;;;10.70;100.00
55032;BME280;40928;51.076;7.950;2023-03-23T10:07:20;96091.44;;;10.59;100.00
55032;BME280;40928;51.076;7.950;2023-03-23T10:09:47;96103.97;;;10.58;100.00
55032;BME280;40928;51.076;7.950;2023-03-23T10:14:46;96095.91;;;10.53;100.00
55032;BME280;40928;51.076;7.950;2023-03-23T10:17:20;96103.38;;;10.46;100.00
55032;BME280;40928;51.076;7.950;2023-03-23T10:22:29;96091.66;;;10.57;100.00
55032;BME280;40928;51.076;7.950;2023-03-23T10:25:19;96095.16;;;10.58;100.00
55032;BME280;40928;51.076;7.950;2023-03-23T10:30:30;96098.09;;;10.61;100.00
55032;BME280;40928;51.076;7.950;2023-03-23T10:33:02;96097.59;;;10.64;100.00
55032;BME280;40928;51.076;7.950;2023-03-23T10:35:36;96090.34;;;10.60;100.00
55032;BME280;40928;51.076;7.950;2023-03-23T10:38:09;96087.94;;;10.58;100.00
55032;BME280;40928;51.076;7.950;2023-03-23T10:40:48;96099.72;;;10.62;100.00
55032;BME280;40928;51.076;7.950;2023-03-23T10:43:14;96094.09;;;10.59;100.00
55032;BME280;40928;51.076;7.950;2023-03-23T10:45:42;96104.78;;;10.59;100.00
55032;BME280;40928;51.076;7.950;2023-03-23T10:48:20;96109.28;;;10.58;100.00
55032;BME280;40928;51.076;7.950;2023-03-23T10:50:51;96110.38;;;10.62;100.00
55032;BME280;40928;51.076;7.950;2023-03-23T10:53:39;96109.81;;;10.55;100.00
55032;BME280;40928;51.076;7.950;2023-03-23T10:56:28;96115.34;;;10.38;100.00
55032;BME280;40928;51.076;7.950;2023-03-23T10:58:55;96116.38;;;10.37;100.00
55032;BME280;40928;51.076;7.950;2023-03-23T11:01:30;96110.72;;;10.28;100.00
55032;BME280;40928;51.076;7.950;2023-03-23T11:03:57;96109.00;;;10.06;100.00
55032;BME280;40928;51.076;7.950;2023-03-23T11:06:28;96115.94;;;10.08;100.00
55032;BME280;40928;51.076;7.950;2023-03-23T11:08:58;96115.94;;;10.08;100.00
55032;BME280;40928;51.076;7.950;2023-03-23T11:11:25;96124.94;;;9.96;100.00
55032;BME280;40928;51.076;7.950;2023-03-23T11:13:57;96122.00;;;9.98;100.00
55032;BME280;40928;51.076;7.950;2023-03-23T11:16:25;96109.97;;;9.90;100.00
55032;BME280;40928;51.076;7.950;2023-03-23T11:18:53;96113.50;;;10.01;100.00
55032;BME280;40928;51.076;7.950;2023-03-23T11:21:22;96111.88;;;9.95;100.00
55032;BME280;40928;51.076;7.950;2023-03-23T11:23:54;96102.84;;;9.96;100.00
55032;BME280;40928;51.076;7.950;2023-03-23T11:26:33;96118.38;;;10.09;100.00
55032;BME280;40928;51.076;7.950;2023-03-23T11:31:44;96117.88;;;10.17;100.00
55032;BME280;40928;51.076;7.950;2023-03-23T11:34:20;96117.09;;;10.22;100.00
55032;BME280;40928;51.076;7.950;2023-03-23T11:36:55;96113.38;;;10.23;100.00
55032;BME280;40928;51.076;7.950;2023-03-23T11:39:28;96117.09;;;10.17;100.00
55032;BME280;40928;51.076;7.950;2023-03-23T11:41:56;96113.91;;;10.25;100.00
55032;BME280;40928;51.076;7.950;2023-03-23T11:44:24;96119.44;;;10.13;100.00
55032;BME280;40928;51.076;7.950;2023-03-23T11:52:59;96095.44;;;10.08;100.00
55032;BME280;40928;51.076;7.950;2023-03-23T11:55:51;96102.66;;;10.13;100.00
55032;BME280;40928;51.076;7.950;2023-03-23T11:58:20;96103.47;;;10.18;100.00
55032;BME280;40928;51.076;7.950;2023-03-23T12:00:56;96104.25;;;10.14;100.00
55032;BME280;40928;51.076;7.950;2023-03-23T12:03:26;96105.63;;;10.21;100.00
55032;BME280;40928;51.076;7.950;2023-03-23T12:06:11;96093.38;;;10.26;100.00
55032;BME280;40928;51.076;7.950;2023-03-23T12:16:54;96074.38;;;10.80;100.00
55032;BME280;40928;51.076;7.950;2023-03-23T12:27:24;96073.03;;;10.83;100.00
55032;BME280;40928;51.076;7.950;2023-03-23T12:32:59;96088.50;;;10.65;100.00
55032;BME280;40928;51.076;7.950;2023-03-23T12:38:32;96066.09;;;10.72;100.00
55032;BME280;40928;51.076;7.950;2023-03-23T12:41:20;96069.53;;;10.62;100.00
55032;BME280;40928;51.076;7.950;2023-03-23T12:43:57;96062.06;;;10.59;100.00
55032;BME280;40928;51.076;7.950;2023-03-23T12:54:34;96061.28;;;10.63;100.00
55032;BME280;40928;51.076;7.950;2023-03-23T12:57:13;96067.41;;;10.69;100.00
55032;BME280;40928;51.076;7.950;2023-03-23T12:59:52;96061.81;;;10.76;100.00
55032;BME280;40928;51.076;7.950;2023-03-23T13:02:24;96072.25;;;10.82;100.00
55032;BME280;40928;51.076;7.950;2023-03-23T13:04:58;96065.56;;;10.85;100.00
55032;BME280;40928;51.076;7.950;2023-03-23T13:07:29;96065.88;;;10.89;100.00
55032;BME280;40928;51.076;7.950;2023-03-23T13:13:23;96079.25;;;11.04;100.00
55032;BME280;40928;51.076;7.950;2023-03-23T13:21:16;96088.38;;;11.50;100.00
55032;BME280;40928;51.076;7.950;2023-03-23T13:23:49;96071.78;;;11.58;100.00
55032;BME280;40928;51.076;7.950;2023-03-23T13:26:18;96079.00;;;11.73;100.00
55032;BME280;40928;51.076;7.950;2023-03-23T13:34:02;96095.28;;;11.87;100.00
55032;BME280;40928;51.076;7.950;2023-03-23T13:38:56;96090.47;;;11.73;100.00
55032;BME280;40928;51.076;7.950;2023-03-23T13:41:25;96073.09;;;11.76;100.00
55032;BME280;40928;51.076;7.950;2023-03-23T13:43:51;96074.19;;;11.70;100.00
55032;BME280;40928;51.076;7.950;2023-03-23T13:48:48;96077.66;;;11.65;100.00
55032;BME280;40928;51.076;7.950;2023-03-23T13:51:25;96078.72;;;11.59;100.00
55032;BME280;40928;51.076;7.950;2023-03-23T13:53:51;96072.03;;;11.62;100.00
55032;BME280;40928;51.076;7.950;2023-03-23T13:56:35;96087.31;;;11.51;100.00
55032;BME280;40928;51.076;7.950;2023-03-23T14:01:54;96068.03;;;11.28;100.00
55032;BME280;40928;51.076;7.950;2023-03-23T14:04:21;96093.16;;;11.17;100.00
55032;BME280;40928;51.076;7.950;2023-03-23T14:06:49;96091.53;;;11.10;100.00
55032;BME280;40928;51.076;7.950;2023-03-23T14:09:36;96102.75;;;11.02;100.00
55032;BME280;40928;51.076;7.950;2023-03-23T14:14:48;96099.50;;;10.85;100.00
55032;BME280;40928;51.076;7.950;2023-03-23T14:17:18;96090.44;;;10.86;100.00
55032;BME280;40928;51.076;7.950;2023-03-23T14:19:53;96096.03;;;10.79;100.00
55032;BME280;40928;51.076;7.950;2023-03-23T14:22:35;96093.56;;;10.67;100.00
55032;BME280;40928;51.076;7.950;2023-03-23T14:25:21;96089.31;;;10.71;100.00
55032;BME280;40928;51.076;7.950;2023-03-23T14:27:47;96089.06;;;10.73;100.00
55032;BME280;40928;51.076;7.950;2023-03-23T14:30:15;96101.59;;;10.67;100.00
55032;BME280;40928;51.076;7.950;2023-03-23T14:32:41;96086.13;;;10.74;100.00
55032;BME280;40928;51.076;7.950;2023-03-23T14:35:31;96092.25;;;10.75;100.00
55032;BME280;40928;51.076;7.950;2023-03-23T14:37:57;96074.66;;;10.84;100.00
55032;BME280;40928;51.076;7.950;2023-03-23T14:40:27;96090.94;;;10.77;100.00
55032;BME280;40928;51.076;7.950;2023-03-23T14:42:53;96083.47;;;10.79;100.00
55032;BME280;40928;51.076;7.950;2023-03-23T14:45:21;96087.75;;;10.86;100.00
55032;BME280;40928;51.076;7.950;2023-03-23T14:47:53;96096.31;;;10.88;100.00
55032;BME280;40928;51.076;7.950;2023-03-23T14:52:50;96078.41;;;10.99;100.00
55032;BME280;40928;51.076;7.950;2023-03-23T14:55:21;96082.13;;;10.87;100.00
55032;BME280;40928;51.076;7.950;2023-03-23T14:57:48;96082.41;;;10.86;100.00
55032;BME280;40928;51.076;7.950;2023-03-23T15:00:21;96084.81;;;10.87;100.00
55032;BME280;40928;51.076;7.950;2023-03-23T15:02:50;96097.66;;;10.90;100.00
55032;BME280;40928;51.076;7.950;2023-03-23T15:05:33;96097.91;;;10.89;100.00
55032;BME280;40928;51.076;7.950;2023-03-23T15:08:25;96099.00;;;10.98;100.00